createdAt,value
2022-10-07T00:00:01.044Z,100950.58
2022-10-07T00:02:36.193Z,100949.79
2022-10-07T00:05:09.922Z,100950.79
2022-10-07T00:07:44.552Z,100947.59
2022-10-07T00:10:17.919Z,100949.98
2022-10-07T00:12:50.808Z,100952.86
2022-10-07T00:15:24.325Z,100955.27
2022-10-07T00:17:57.828Z,100948.36
2022-10-07T00:20:30.715Z,100957.41
2022-10-07T00:23:03.627Z,100951.30
2022-10-07T00:25:39.787Z,100951.83
2022-10-07T00:28:12.670Z,100951.93
2022-10-07T00:30:45.839Z,100952.03
2022-10-07T00:33:18.626Z,100957.16
2022-10-07T00:35:51.419Z,100951.11
2022-10-07T00:38:24.285Z,100952.73
2022-10-07T00:40:59.495Z,100945.20
2022-10-07T00:43:34.014Z,100941.59
2022-10-07T00:46:32.506Z,100937.67
2022-10-07T00:49:10.024Z,100939.97
2022-10-07T00:51:43.979Z,100933.50
2022-10-07T00:54:18.512Z,100934.11
2022-10-07T00:56:51.974Z,100928.27
2022-10-07T00:59:25.335Z,100931.17
2022-10-07T01:01:58.433Z,100926.53
2022-10-07T01:04:31.803Z,100929.03
2022-10-07T01:07:05.283Z,100929.44
2022-10-07T01:09:40.196Z,100933.98
2022-10-07T01:12:36.312Z,100928.87
2022-10-07T01:15:29.325Z,100926.64
2022-10-07T01:18:18.909Z,100925.22
2022-10-07T01:21:08.658Z,100928.05
2022-10-07T01:24:15.454Z,100928.27
2022-10-07T01:27:03.224Z,100929.38
2022-10-07T01:29:43.452Z,100934.21
2022-10-07T01:32:41.860Z,100931.39
2022-10-07T01:35:18.926Z,100930.98
2022-10-07T01:38:00.463Z,100934.59
2022-10-07T01:40:48.573Z,100934.32
2022-10-07T01:43:23.468Z,100930.67
2022-10-07T01:45:57.253Z,100930.98
2022-10-07T01:48:31.693Z,100930.08
2022-10-07T01:51:04.786Z,100931.28
2022-10-07T01:53:54.096Z,100929.45
2022-10-07T01:56:41.202Z,100924.13
2022-10-07T01:59:47.794Z,100927.74
2022-10-07T02:02:43.665Z,100927.74
2022-10-07T02:05:46.937Z,100932.28
2022-10-07T02:08:42.687Z,100928.99
2022-10-07T02:11:29.077Z,100927.80
2022-10-07T02:14:28.777Z,100933.91
2022-10-07T02:17:10.901Z,100927.80
2022-10-07T02:19:53.687Z,100927.80
2022-10-07T02:22:29.236Z,100920.86
2022-10-07T02:25:02.535Z,100927.59
2022-10-07T02:27:38.577Z,100930.52
2022-10-07T02:30:15.413Z,100928.53
2022-10-07T02:32:57.684Z,100927.92
2022-10-07T02:35:50.512Z,100936.47
2022-10-07T02:38:25.877Z,100928.23
2022-10-07T02:41:38.075Z,100926.20
2022-10-07T02:44:36.222Z,100930.52
2022-10-07T02:47:14.656Z,100929.69
2022-10-07T02:49:53.030Z,100930.88
2022-10-07T02:52:27.151Z,100927.24
2022-10-07T02:55:07.173Z,100932.14
2022-10-07T02:57:45.283Z,100929.09
2022-10-07T03:00:20.837Z,100930.59
2022-10-07T03:03:05.284Z,100932.58
2022-10-07T03:05:43.305Z,100936.80
2022-10-07T03:08:16.141Z,100933.16
2022-10-07T03:10:50.899Z,100933.34
2022-10-07T03:13:25.186Z,100932.34
2022-10-07T03:15:59.795Z,100931.30
2022-10-07T03:18:33.580Z,100940.33
2022-10-07T03:21:26.782Z,100934.52
2022-10-07T03:24:01.802Z,100936.49
2022-10-07T03:26:35.890Z,100943.84
2022-10-07T03:29:10.618Z,100945.92
2022-10-07T03:31:44.046Z,100941.12
2022-10-07T03:34:17.027Z,100947.91
2022-10-07T03:36:51.015Z,100943.39
2022-10-07T03:39:24.841Z,100943.77
2022-10-07T03:41:57.792Z,100938.06
2022-10-07T03:44:30.727Z,100941.76
2022-10-07T03:47:08.729Z,100953.39
2022-10-07T03:49:41.852Z,100952.34
2022-10-07T03:52:15.214Z,100951.75
2022-10-07T03:54:48.402Z,100953.95
2022-10-07T03:57:39.526Z,100949.25
2022-10-07T04:00:13.923Z,100950.78
2022-10-07T04:02:53.615Z,100947.09
2022-10-07T04:05:26.739Z,100944.97
2022-10-07T04:08:00.536Z,100952.90
2022-10-07T04:10:34.898Z,100948.83
2022-10-07T04:13:07.532Z,100942.13
2022-10-07T04:15:40.729Z,100937.91
2022-10-07T04:18:14.383Z,100941.03
2022-10-07T04:20:47.575Z,100942.56
2022-10-07T04:23:21.497Z,100941.28
2022-10-07T04:25:55.568Z,100945.73
2022-10-07T04:28:28.806Z,100951.39
2022-10-07T04:31:09.011Z,100946.19
2022-10-07T04:33:44.586Z,100950.13
2022-10-07T04:36:19.335Z,100951.45
2022-10-07T04:38:56.750Z,100950.88
2022-10-07T04:41:31.902Z,100953.02
2022-10-07T04:44:05.086Z,100955.75
2022-10-07T04:46:41.177Z,100957.97
2022-10-07T04:49:15.617Z,100955.41
2022-10-07T04:51:49.551Z,100956.30
2022-10-07T04:54:24.513Z,100958.92
2022-10-07T04:56:59.364Z,100956.83
2022-10-07T04:59:36.438Z,100962.68
2022-10-07T05:02:09.545Z,100965.91
2022-10-07T05:04:44.587Z,100964.33
2022-10-07T05:07:18.639Z,100964.36
2022-10-07T05:09:51.367Z,100965.45
2022-10-07T05:12:25.992Z,100963.05
2022-10-07T05:15:01.106Z,100962.84
2022-10-07T05:17:36.654Z,100965.75
2022-10-07T05:20:12.594Z,100969.29
2022-10-07T05:22:47.035Z,100957.82
2022-10-07T05:25:20.383Z,100961.22
2022-10-07T05:27:57.760Z,100966.84
2022-10-07T05:30:31.463Z,100959.71
2022-10-07T05:33:04.933Z,100959.59
2022-10-07T05:35:38.174Z,100959.20
2022-10-07T05:38:12.321Z,100957.03
2022-10-07T05:40:45.828Z,100956.02
2022-10-07T05:43:20.850Z,100948.87
2022-10-07T05:46:06.187Z,100956.70
2022-10-07T05:48:41.158Z,100948.34
2022-10-07T05:51:16.778Z,100958.09
2022-10-07T05:53:50.615Z,100959.84
2022-10-07T05:56:23.870Z,100967.05
2022-10-07T05:59:00.506Z,100968.84
2022-10-07T06:01:34.196Z,100974.14
2022-10-07T06:04:09.271Z,100975.92
2022-10-07T06:06:44.020Z,100981.11
2022-10-07T06:09:35.605Z,100983.13
2022-10-07T06:12:25.471Z,100989.66
2022-10-07T06:14:59.689Z,100987.03
2022-10-07T06:17:33.247Z,100989.80
2022-10-07T06:20:07.924Z,100987.97
2022-10-07T06:22:43.897Z,100991.38
2022-10-07T06:25:17.703Z,100985.34
2022-10-07T06:27:54.360Z,100987.95
2022-10-07T06:30:28.174Z,100981.84
2022-10-07T06:33:03.050Z,100986.61
2022-10-07T06:35:36.594Z,100986.08
2022-10-07T06:38:10.098Z,100988.55
2022-10-07T06:40:43.538Z,100987.68
2022-10-07T06:43:16.757Z,100981.77
2022-10-07T06:45:51.494Z,100977.62
2022-10-07T06:48:24.966Z,100985.26
2022-10-07T06:51:03.504Z,100989.46
2022-10-07T06:53:36.863Z,100990.53
2022-10-07T06:56:11.815Z,100989.98
2022-10-07T06:58:46.107Z,100992.37
2022-10-07T07:01:20.875Z,100994.99
2022-10-07T07:03:54.422Z,100992.11
2022-10-07T07:06:27.927Z,100991.12
2022-10-07T07:09:02.604Z,100984.98
2022-10-07T07:11:41.018Z,100985.13
2022-10-07T07:14:15.849Z,100985.72
2022-10-07T07:16:50.440Z,100985.30
2022-10-07T07:19:23.407Z,100986.22
2022-10-07T07:21:56.802Z,100984.66
2022-10-07T07:24:30.285Z,100976.07
2022-10-07T07:27:04.709Z,100975.91
2022-10-07T07:29:37.833Z,100980.66
2022-10-07T07:32:11.352Z,100978.16
2022-10-07T07:34:46.116Z,100979.06
2022-10-07T07:37:21.409Z,100977.39
2022-10-07T07:39:55.958Z,100976.24
2022-10-07T07:42:28.921Z,100971.48
2022-10-07T07:45:02.577Z,100979.02
2022-10-07T07:47:36.071Z,100976.38
2022-10-07T07:50:10.124Z,100965.88
2022-10-07T07:52:43.132Z,100968.23
2022-10-07T07:55:17.724Z,100962.56
2022-10-07T07:57:51.453Z,100956.69
2022-10-07T08:00:24.315Z,100956.42
2022-10-07T08:03:03.264Z,100960.61
2022-10-07T08:05:37.360Z,100966.10
2022-10-07T08:08:11.939Z,100969.13
2022-10-07T08:10:48.418Z,100962.44
2022-10-07T08:13:20.323Z,100960.27
2022-10-07T08:15:57.951Z,100956.34
2022-10-07T08:18:31.008Z,100958.08
2022-10-07T08:21:07.818Z,100956.59
2022-10-07T08:23:42.603Z,100960.89
2022-10-07T08:26:16.073Z,100957.73
2022-10-07T08:28:50.030Z,100950.14
2022-10-07T08:31:23.627Z,100951.89
2022-10-07T08:33:59.869Z,100950.23
2022-10-07T08:36:35.207Z,100953.16
2022-10-07T08:39:08.489Z,100945.30
2022-10-07T08:41:58.311Z,100946.86
2022-10-07T08:44:36.327Z,100954.22
2022-10-07T08:47:35.372Z,100941.86
2022-10-07T08:50:25.545Z,100943.52
2022-10-07T08:53:08.966Z,100939.91
2022-10-07T08:55:55.158Z,100948.63
2022-10-07T08:59:05.707Z,100937.42
2022-10-07T09:02:04.123Z,100942.97
2022-10-07T09:04:56.910Z,100936.28
2022-10-07T09:07:47.392Z,100940.03
2022-10-07T09:10:37.627Z,100937.73
2022-10-07T09:13:21.250Z,100937.56
2022-10-07T09:16:16.196Z,100942.11
2022-10-07T09:18:56.552Z,100935.77
2022-10-07T09:21:41.763Z,100934.31
2022-10-07T09:24:26.695Z,100932.33
2022-10-07T09:27:02.547Z,100923.28
2022-10-07T09:29:36.710Z,100924.15
2022-10-07T09:32:14.903Z,100925.35
2022-10-07T09:34:48.095Z,100923.02
2022-10-07T09:37:27.898Z,100915.80
2022-10-07T09:40:24.038Z,100921.42
2022-10-07T09:42:57.281Z,100919.85
2022-10-07T09:45:35.290Z,100916.73
2022-10-07T09:48:13.755Z,100920.63
2022-10-07T09:50:48.302Z,100920.98
2022-10-07T09:53:29.957Z,100916.88
2022-10-07T09:56:03.013Z,100910.98
2022-10-07T09:58:36.338Z,100911.98
2022-10-07T10:01:12.623Z,100910.23
2022-10-07T10:03:45.630Z,100905.06
2022-10-07T10:06:20.551Z,100900.00
2022-10-07T10:15:08.979Z,100901.05
2022-10-07T10:17:42.719Z,100897.13
2022-10-07T10:20:38.893Z,100894.94
2022-10-07T10:23:37.296Z,100890.08
2022-10-07T10:26:49.923Z,100889.52
2022-10-07T10:30:06.092Z,100882.44
2022-10-07T10:32:53.031Z,100887.77
2022-10-07T10:35:32.662Z,100874.30
2022-10-07T10:38:38.874Z,100881.41
2022-10-07T10:41:20.122Z,100873.84
2022-10-07T10:44:12.306Z,100868.85
2022-10-07T10:47:04.847Z,100872.77
2022-10-07T10:50:03.139Z,100866.59
2022-10-07T10:52:45.464Z,100873.69
2022-10-07T10:55:26.161Z,100867.48
2022-10-07T10:58:24.297Z,100867.48
2022-10-07T11:01:36.945Z,100867.48
2022-10-07T11:04:22.382Z,100871.60
2022-10-07T11:07:05.975Z,100865.03
2022-10-07T11:09:56.876Z,100865.03
2022-10-07T11:12:43.374Z,100860.81
2022-10-07T11:15:38.595Z,100861.31
2022-10-07T11:18:22.142Z,100851.16
2022-10-07T11:20:56.849Z,100857.93
2022-10-07T11:23:43.112Z,100850.13
2022-10-07T11:26:24.314Z,100850.23
2022-10-07T11:28:58.626Z,100856.75
2022-10-07T11:31:39.983Z,100852.94
2022-10-07T11:34:40.805Z,100854.93
2022-10-07T11:37:31.107Z,100863.20
2022-10-07T11:40:09.283Z,100863.61
2022-10-07T11:42:45.620Z,100861.45
2022-10-07T11:45:28.490Z,100848.31
2022-10-07T11:48:07.448Z,100849.79
2022-10-07T12:03:40.819Z,100848.81
2022-10-07T12:06:14.325Z,100845.30
2022-10-07T12:08:47.599Z,100855.48
2022-10-07T12:11:25.360Z,100850.59
2022-10-07T12:14:01.350Z,100854.20
2022-10-07T12:16:38.981Z,100852.88
2022-10-07T12:19:23.034Z,100853.87
2022-10-07T12:28:31.491Z,100852.20
2022-10-07T12:31:22.518Z,100847.84
2022-10-07T12:34:10.709Z,100852.40
2022-10-07T12:36:44.444Z,100854.66
2022-10-07T12:39:30.429Z,100847.59
2022-10-07T12:42:05.396Z,100847.59
2022-10-07T12:44:45.853Z,100853.82
2022-10-07T12:47:29.913Z,100852.11
2022-10-07T12:50:05.062Z,100853.43
2022-10-07T12:52:58.990Z,100853.77
2022-10-07T12:55:45.341Z,100853.77
2022-10-07T12:58:43.469Z,100851.02
2022-10-07T13:01:32.890Z,100854.02
2022-10-07T13:04:16.859Z,100849.06
2022-10-07T13:07:46.662Z,100855.98
2022-10-07T13:11:02.039Z,100859.45
2022-10-07T13:13:45.704Z,100852.78
2022-10-07T13:16:27.271Z,100851.72
2022-10-07T13:19:29.210Z,100854.70
2022-10-07T13:22:17.798Z,100851.95
2022-10-07T13:24:54.402Z,100850.48
2022-10-07T13:27:35.684Z,100852.13
2022-10-07T13:30:11.248Z,100846.35
2022-10-07T13:32:45.896Z,100850.33
2022-10-07T13:35:36.260Z,100854.68
2022-10-07T13:38:06.450Z,100848.90
2022-10-07T13:40:40.003Z,100847.81
2022-10-07T13:43:15.010Z,100844.70
2022-10-07T13:45:48.607Z,100844.22
2022-10-07T13:48:25.232Z,100848.58
2022-10-07T13:50:59.961Z,100842.31
2022-10-07T13:53:36.509Z,100844.34
2022-10-07T13:56:28.518Z,100845.97
2022-10-07T13:59:01.722Z,100851.09
2022-10-07T14:01:38.474Z,100846.87
2022-10-07T14:04:28.678Z,100848.88
2022-10-07T14:07:19.589Z,100853.89
2022-10-07T14:10:05.078Z,100851.09
2022-10-07T14:12:44.559Z,100851.36
2022-10-07T14:15:27.575Z,100850.25
2022-10-07T14:18:11.522Z,100853.23
2022-10-07T14:20:53.190Z,100852.62
2022-10-07T14:23:38.077Z,100857.73
2022-10-07T14:26:14.508Z,100847.43
2022-10-07T14:28:47.725Z,100845.88
2022-10-07T14:31:40.130Z,100845.28
2022-10-07T14:34:38.049Z,100850.83
2022-10-07T14:37:15.137Z,100844.83
2022-10-07T14:39:50.883Z,100845.03
2022-10-07T14:42:30.499Z,100846.61
2022-10-07T14:45:08.693Z,100848.64
2022-10-07T14:47:45.098Z,100857.72
2022-10-07T14:50:20.222Z,100854.50
2022-10-07T14:52:54.037Z,100859.14
2022-10-07T14:55:29.761Z,100861.66
2022-10-07T14:58:02.656Z,100861.97
2022-10-07T15:00:39.455Z,100861.36
2022-10-07T15:03:10.176Z,100866.95
2022-10-07T15:05:43.036Z,100867.78
2022-10-07T15:08:16.786Z,100865.82
2022-10-07T15:10:50.547Z,100865.82
2022-10-07T15:13:23.571Z,100870.22
2022-10-07T15:15:56.597Z,100868.34
2022-10-07T15:18:29.462Z,100869.54
2022-10-07T15:21:02.431Z,100873.38
2022-10-07T15:23:35.597Z,100871.44
2022-10-07T15:26:10.043Z,100873.00
2022-10-07T15:28:42.962Z,100878.52
2022-10-07T15:31:16.524Z,100885.49
2022-10-07T15:33:49.889Z,100884.87
2022-10-07T15:36:23.195Z,100878.97
2022-10-07T15:38:56.694Z,100885.88
2022-10-07T15:41:45.935Z,100886.55
2022-10-07T15:44:22.435Z,100887.67
2022-10-07T15:46:56.364Z,100891.50
2022-10-07T15:49:30.563Z,100898.02
2022-10-07T15:52:04.177Z,100897.03
2022-10-07T15:54:37.748Z,100894.70
2022-10-07T15:57:10.746Z,100891.11
2022-10-07T15:59:45.037Z,100901.52
2022-10-07T16:02:21.841Z,100897.87
2022-10-07T16:04:54.540Z,100902.09
2022-10-07T16:07:29.092Z,100905.02
2022-10-07T16:10:01.855Z,100898.79
2022-10-07T16:12:35.271Z,100904.45
2022-10-07T16:15:09.626Z,100902.55
2022-10-07T16:17:43.420Z,100901.16
2022-10-07T16:20:18.415Z,100899.64
2022-10-07T16:22:52.694Z,100902.04
2022-10-07T16:25:25.630Z,100901.34
2022-10-07T16:28:16.742Z,100903.38
2022-10-07T16:30:51.563Z,100903.24
2022-10-07T16:33:27.358Z,100905.25
2022-10-07T16:36:00.213Z,100903.33
2022-10-07T16:38:33.994Z,100906.65
2022-10-07T16:41:07.334Z,100904.16
2022-10-07T16:43:40.267Z,100911.04
2022-10-07T16:46:19.645Z,100907.41
2022-10-07T16:48:53.073Z,100909.08
2022-10-07T16:51:31.352Z,100907.20
2022-10-07T16:54:07.448Z,100911.94
2022-10-07T16:56:42.105Z,100908.66
2022-10-07T16:59:22.278Z,100913.29
2022-10-07T17:01:57.069Z,100908.80
2022-10-07T17:04:31.604Z,100910.48
2022-10-07T17:07:06.075Z,100921.83
2022-10-07T17:09:39.044Z,100919.95
2022-10-07T17:12:12.062Z,100918.48
2022-10-07T17:14:45.996Z,100920.44
2022-10-07T17:17:20.419Z,100917.66
2022-10-07T17:19:54.891Z,100917.91
2022-10-07T17:22:28.453Z,100922.70
2022-10-07T17:25:03.040Z,100917.80
2022-10-07T17:27:36.016Z,100916.41
2022-10-07T17:30:10.603Z,100919.78
2022-10-07T17:32:43.738Z,100921.52
2022-10-07T17:35:18.028Z,100919.28
2022-10-07T17:37:51.256Z,100919.28
2022-10-07T17:40:24.112Z,100926.30
2022-10-07T17:42:57.281Z,100924.98
2022-10-07T17:45:32.962Z,100920.95
2022-10-07T17:48:06.789Z,100927.89
2022-10-07T17:50:39.876Z,100935.28
2022-10-07T17:53:13.037Z,100933.00
2022-10-07T17:55:53.575Z,100937.42
2022-10-07T17:58:27.005Z,100930.84
2022-10-07T18:01:02.417Z,100937.84
2022-10-07T18:03:37.342Z,100933.82
2022-10-07T18:06:12.171Z,100937.27
2022-10-07T18:08:48.401Z,100936.38
2022-10-07T18:11:21.293Z,100938.59
2022-10-07T18:14:11.606Z,100935.14
2022-10-07T18:16:44.506Z,100928.55
2022-10-07T18:19:17.204Z,100933.25
2022-10-07T18:21:50.843Z,100933.59
2022-10-07T18:24:28.378Z,100937.01
2022-10-07T18:27:02.611Z,100936.86
2022-10-07T18:29:38.966Z,100935.94
2022-10-07T18:32:11.942Z,100939.81
2022-10-07T18:34:44.596Z,100940.23
2022-10-07T18:37:17.481Z,100941.05
2022-10-07T18:39:51.089Z,100939.58
2022-10-07T18:42:24.144Z,100942.56
2022-10-07T18:44:57.066Z,100939.75
2022-10-07T18:47:29.998Z,100939.67
2022-10-07T18:50:03.883Z,100943.39
2022-10-07T18:52:36.886Z,100941.45
2022-10-07T18:55:11.085Z,100943.93
2022-10-07T18:57:44.230Z,100944.59
2022-10-07T19:00:17.803Z,100951.98
2022-10-07T19:02:52.169Z,100951.91
2022-10-07T19:05:24.066Z,100951.44
2022-10-07T19:07:57.483Z,100955.63
2022-10-07T19:10:30.308Z,100954.92
2022-10-07T19:13:21.111Z,100957.55
2022-10-07T19:15:54.978Z,100956.89
2022-10-07T19:18:28.164Z,100960.30
2022-10-07T19:21:02.202Z,100962.77
2022-10-07T19:23:34.424Z,100966.21
2022-10-07T19:26:07.409Z,100966.05
2022-10-07T19:28:41.712Z,100960.63
2022-10-07T19:31:27.641Z,100967.63
2022-10-07T19:34:10.261Z,100967.05
2022-10-07T19:36:46.707Z,100968.20
2022-10-07T19:39:22.327Z,100971.91
2022-10-07T19:41:56.997Z,100968.57
2022-10-07T19:44:30.611Z,100974.98
2022-10-07T19:47:04.372Z,100975.72
2022-10-07T19:49:37.725Z,100978.27
2022-10-07T19:52:11.197Z,100983.78
2022-10-07T19:54:46.112Z,100982.64
2022-10-07T19:57:19.275Z,100981.81
2022-10-07T19:59:52.346Z,100983.56
2022-10-07T20:02:25.253Z,100980.09
2022-10-07T20:04:58.347Z,100984.68
2022-10-07T20:07:31.689Z,100981.50
2022-10-07T20:10:05.045Z,100986.67
2022-10-07T20:12:39.573Z,100981.75
2022-10-07T20:15:14.298Z,100979.43
2022-10-07T20:17:49.315Z,100978.70
2022-10-07T20:20:22.846Z,100982.36
2022-10-07T20:22:56.422Z,100988.25
2022-10-07T20:25:30.129Z,100993.33
2022-10-07T20:28:03.126Z,100999.34
2022-10-07T20:30:37.253Z,100997.10
2022-10-07T20:33:10.390Z,100997.86
2022-10-07T20:35:43.416Z,101000.31
2022-10-07T20:38:16.142Z,100997.91
2022-10-07T20:41:11.371Z,100993.88
2022-10-07T20:43:44.181Z,100999.05
2022-10-07T20:46:17.288Z,100996.84
2022-10-07T20:48:52.203Z,100992.39
2022-10-07T20:51:25.311Z,100991.41
2022-10-07T20:53:58.224Z,100992.17
2022-10-07T20:56:32.725Z,100993.39
2022-10-07T20:59:06.695Z,100990.98
2022-10-07T21:01:41.137Z,100995.16
2022-10-07T21:04:16.681Z,100998.51
2022-10-07T21:06:53.412Z,100994.91
2022-10-07T21:09:28.598Z,100997.77
2022-10-07T21:12:01.697Z,100992.17
2022-10-07T21:14:35.489Z,101002.41
2022-10-07T21:17:09.710Z,101002.05
2022-10-07T21:19:42.702Z,101001.45
2022-10-07T21:22:15.549Z,100999.67
2022-10-07T21:24:48.551Z,101000.47
2022-10-07T21:27:21.527Z,100999.67
2022-10-07T21:29:54.378Z,100993.11
2022-10-07T21:32:28.477Z,100993.58
2022-10-07T21:35:03.515Z,100992.13
2022-10-07T21:37:36.532Z,100995.05
2022-10-07T21:40:10.564Z,100998.51
2022-10-07T21:42:42.973Z,100994.06
2022-10-07T21:45:16.114Z,100997.48
2022-10-07T21:47:49.885Z,101003.96
2022-10-07T21:50:22.537Z,100994.39
2022-10-07T21:52:55.239Z,100996.92
2022-10-07T21:55:28.083Z,101000.86
2022-10-07T21:58:01.989Z,100997.31
2022-10-07T22:00:36.530Z,100997.82
2022-10-07T22:03:12.747Z,100989.77
2022-10-07T22:05:45.601Z,100995.53
2022-10-07T22:08:38.175Z,100993.70
2022-10-07T22:11:19.362Z,100998.45
2022-10-07T22:13:55.433Z,100991.41
2022-10-07T22:16:29.307Z,100992.55
2022-10-07T22:19:01.680Z,100993.77
2022-10-07T22:21:38.037Z,100988.91
2022-10-07T22:24:11.240Z,100983.98
2022-10-07T22:26:47.544Z,100987.92
2022-10-07T22:29:21.956Z,100985.72
2022-10-07T22:31:55.432Z,100985.39
2022-10-07T22:34:45.815Z,100987.59
2022-10-07T22:37:18.899Z,100995.88
2022-10-07T22:39:51.772Z,100991.05
2022-10-07T22:42:25.208Z,100987.50
2022-10-07T22:44:57.726Z,100981.69
2022-10-07T22:47:30.516Z,100985.53
2022-10-07T22:50:08.400Z,100991.67
2022-10-07T22:52:41.924Z,100987.27
2022-10-07T22:55:17.082Z,100986.43
2022-10-07T22:57:51.413Z,100988.16
2022-10-07T23:00:23.679Z,100984.55
2022-10-07T23:02:56.535Z,100987.56
2022-10-07T23:05:29.343Z,100988.30
2022-10-07T23:08:02.033Z,100985.98
2022-10-07T23:10:34.928Z,100984.66
2022-10-07T23:13:07.876Z,100984.66
2022-10-07T23:15:41.212Z,100985.59
2022-10-07T23:18:14.523Z,100976.80
2022-10-07T23:20:47.331Z,100979.84
2022-10-07T23:23:20.134Z,100970.48
2022-10-07T23:25:53.438Z,100973.02
2022-10-07T23:28:26.568Z,100972.50
2022-10-07T23:31:01.158Z,100971.10
2022-10-07T23:33:35.963Z,100972.83
2022-10-07T23:36:11.674Z,100964.36
2022-10-07T23:38:45.583Z,100971.66
2022-10-07T23:41:22.800Z,100969.75
2022-10-07T23:43:57.843Z,100969.19
2022-10-07T23:46:34.250Z,100966.38
2022-10-07T23:49:07.427Z,100967.60
2022-10-07T23:51:40.176Z,100963.67
2022-10-07T23:54:13.135Z,100960.13
2022-10-07T23:56:47.010Z,100955.53
2022-10-07T23:59:19.794Z,100951.33
